Flight Track Log - Related Links

Times and Time Zones

All times are in EDT time to prevent confusion due to time zone crossing. See the NASA905 flight status page for this flight to view local times or setup timezone preferences in your user account.

Time Position Orientation Groundspeed Altitude Reporting Facility
EDT Latitude Longitude Course Direction KTS MPH feet Rate Location/Type
Tue 12:14:15 PM 34.9139 -117.7611 North  Level FlightAware Approximate
Tue 12:15:15 PM 34.9167 -117.6595 344° North  Level FlightAware Approximate
Tue 12:16:15 PM 34.8921 -117.5375 325° Northwest  Level FlightAware Approximate
Tue 12:17:30 PM 35.1206 -117.7314 48° Northeast 317 365 11,700  Level Los Angeles Center
Tue 12:18:30 PM 35.1822 -117.6486 79° East 317 365 13,900 2,050 Climbing Los Angeles Center
Tue 12:19:30 PM 35.1978 -117.5497 114° Southeast 299 344 15,800 1,950 Climbing Los Angeles Center
Tue 12:20:30 PM 35.1636 -117.4553 113° Southeast 278 320 17,800 1,900 Climbing Los Angeles Center
Tue 12:21:30 PM 35.1311 -117.3606 112° Southeast 278 320 19,600 1,600 Climbing Los Angeles Center
Tue 12:22:30 PM 35.0986 -117.2611 112° Southeast 295 339 21,000 1,300 Climbing Los Angeles Center
Tue 12:23:30 PM 35.0642 -117.1592 114° Southeast 306 352 22,200 1,250 Climbing Los Angeles Center
Tue 12:24:30 PM 35.0253 -117.0547 111° Southeast 317 365 23,500 1,300 Climbing Los Angeles Center
Tue 12:25:30 PM 34.9906 -116.9453 105° East 335 386 24,800 750 Climbing Los Angeles Center
Tue 12:26:30 PM 34.9642 -116.8283 88° East 346 398 25,000 100 Climbing Los Angeles Center
Tue 12:27:30 PM 34.9669 -116.7067 116° Southeast 351 404 25,000  Level Los Angeles Center
Tue 12:28:30 PM 34.9297 -116.6128 97° East 346 398 25,000  Level Los Angeles Center
Tue 12:29:30 PM 34.9178 -116.4911 94° East 341 392 25,000  Level Los Angeles Center
Tue 12:30:30 PM 34.9097 -116.3542 94° East 354 407 25,000  Level Los Angeles Center
Tue 12:31:30 PM 34.9017 -116.2275 93° East 368 423 25,000  Level Los Angeles Center
Tue 12:32:30 PM 34.8953 -116.1011 93° East 368 423 25,000  Level Los Angeles Center
Tue 12:33:30 PM 34.8889 -115.9692 95° East 373 429 25,000  Level Los Angeles Center
Tue 12:34:30 PM 34.8806 -115.8428 94° East 373 429 25,000  Level Los Angeles Center
Tue 12:35:30 PM 34.8739 -115.7161 95° East 373 429 25,000  Level Los Angeles Center
Tue 12:36:30 PM 34.8650 -115.5947 94° East 368 423 25,000  Level Los Angeles Center
Tue 12:37:30 PM 34.8581 -115.4631 95° East 368 423 25,000  Level Los Angeles Center
Tue 12:38:30 PM 34.8492 -115.3392 94° East 368 423 25,000  Level Los Angeles Center
Tue 12:39:30 PM 34.8419 -115.2125 96° East 373 429 25,000  Level Los Angeles Center
Tue 12:40:30 PM 34.8306 -115.0861 95° East 368 423 25,000  Level Los Angeles Center
Tue 12:41:30 PM 34.8211 -114.9650 95° East 368 423 25,000  Level Los Angeles Center
Tue 12:42:30 PM 34.8114 -114.8411 97° East 368 423 25,000  Level Los Angeles Center
Tue 12:43:30 PM 34.7997 -114.7197 97° East 368 423 25,000  Level Los Angeles Center
Tue 12:44:30 PM 34.7878 -114.6011 97° East 363 418 25,000  Level Los Angeles Center
Tue 12:46:13 PM 34.7667 -114.3900 96° East 367 422 25,000  Level Albuquerque Center
Tue 12:47:13 PM 34.7569 -114.2703 87° East 367 422 25,000  Level Albuquerque Center
Tue 12:48:13 PM 34.7619 -114.1444 90° East 367 422 25,000  Level Albuquerque Center
Tue 12:49:13 PM 34.7625 -114.0231 90° East 367 422 25,000  Level Albuquerque Center
Tue 12:50:13 PM 34.7631 -113.8992 90° East 367 422 25,000  Level Albuquerque Center
Tue 12:51:13 PM 34.7636 -113.7728 89° East 367 422 25,000  Level Albuquerque Center
Tue 12:52:13 PM 34.7658 -113.6517 90° East 367 422 25,000  Level Albuquerque Center
Tue 12:53:13 PM 34.7664 -113.5253 89° East 367 422 25,000  Level Albuquerque Center
Tue 12:54:13 PM 34.7686 -113.3989 90° East 367 422 25,000  Level Albuquerque Center
Tue 12:55:13 PM 34.7681 -113.2853 89° East 367 422 25,000  Level Albuquerque Center
Tue 12:56:13 PM 34.7700 -113.1589 90° East 367 422 25,000  Level Albuquerque Center
Tue 12:57:13 PM 34.7700 -113.0300 89° East 372 428 25,000  Level Albuquerque Center
Tue 12:58:13 PM 34.7717 -112.9061 90° East 372 428 25,000  Level Albuquerque Center
Tue 12:59:13 PM 34.7711 -112.7772 88° East 372 428 25,000  Level Albuquerque Center
Tue 01:00:13 PM 34.7747 -112.6536 90° East 366 421 25,000  Level Albuquerque Center
Tue 01:01:13 PM 34.7739 -112.5269 88° East 366 421 25,000  Level Albuquerque Center
Tue 01:02:13 PM 34.7772 -112.4008 83° East 366 421 25,000  Level Albuquerque Center
Tue 01:03:13 PM 34.7886 -112.2800 65° Northeast 366 421 25,000  Level Albuquerque Center
Tue 01:04:13 PM 34.8331 -112.1614 84° East 360 414 25,000  Level Albuquerque Center
Tue 01:05:13 PM 34.8442 -112.0381 87° East 366 421 25,000  Level Albuquerque Center
Tue 01:06:13 PM 34.8494 -111.9017 86° East 366 421 25,000  Level Albuquerque Center
Tue 01:07:13 PM 34.8561 -111.7781 86° East 372 428 25,000  Level Albuquerque Center
Tue 01:08:13 PM 34.8619 -111.6719 86° East 361 415 25,000  Level Albuquerque Center
Tue 01:09:13 PM 34.8686 -111.5483 86° East 356 410 25,000  Level Albuquerque Center
Tue 01:10:13 PM 34.8750 -111.4219 86° East 362 417 25,000  Level Albuquerque Center
Tue 01:11:13 PM 34.8814 -111.2958 87° East 367 422 25,000  Level Albuquerque Center
Tue 01:12:13 PM 34.8875 -111.1694 86° East 367 422 25,000  Level Albuquerque Center
Tue 01:13:13 PM 34.8958 -111.0331 87° East 367 422 25,000  Level Albuquerque Center
Tue 01:14:13 PM 34.9017 -110.9067 87° East 367 422 25,000  Level Albuquerque Center
Tue 01:15:13 PM 34.9075 -110.7778 87° East 367 422 25,000  Level Albuquerque Center
Tue 01:16:13 PM 34.9131 -110.6564 88° East 380 437 25,000  Level Albuquerque Center
Tue 01:17:13 PM 34.9167 -110.5275 87° East 380 437 25,000  Level Albuquerque Center
Tue 01:18:13 PM 34.9222 -110.3858 87° East 380 437 25,000  Level Albuquerque Center
Tue 01:19:13 PM 34.9275 -110.2619 87° East 380 437 25,000  Level Albuquerque Center
Tue 01:20:14 PM 34.9325 -110.1431 87° East 380 437 25,000  Level Albuquerque Center
Tue 01:21:13 PM 34.9375 -110.0064 87° East 380 437 25,000  Level Albuquerque Center
Tue 01:22:13 PM 34.9425 -109.8797 87° East 380 437 25,000  Level Albuquerque Center
Tue 01:23:13 PM 34.9472 -109.7508 89° East 380 437 25,000  Level Albuquerque Center
Tue 01:24:13 PM 34.9492 -109.6392 86° East 380 437 25,000  Level Albuquerque Center
Tue 01:25:13 PM 34.9561 -109.5000 88° East 380 437 25,000  Level Albuquerque Center
Tue 01:26:13 PM 34.9603 -109.3708 88° East 373 429 25,000  Level Albuquerque Center
Tue 01:27:13 PM 34.9644 -109.2469 88° East 373 429 25,000  Level Albuquerque Center
Tue 01:28:13 PM 34.9683 -109.1303 95° East 378 435 25,000  Level Albuquerque Center
Tue 01:29:13 PM 34.9578 -108.9933 96° East 373 429 25,000  Level Albuquerque Center
Tue 01:30:13 PM 34.9469 -108.8639 96° East 373 429 25,000  Level Albuquerque Center
Tue 01:31:13 PM 34.9378 -108.7522 95° East 367 422 25,000  Level Albuquerque Center
Tue 01:32:13 PM 34.9289 -108.6228 95° East 373 429 25,000  Level Albuquerque Center
Tue 01:33:13 PM 34.9197 -108.4833 96° East 373 429 25,000  Level Albuquerque Center
Tue 01:34:13 PM 34.9083 -108.3592 96° East 378 435 25,000  Level Albuquerque Center
Tue 01:35:13 PM 34.8989 -108.2450 96° East 378 435 25,000  Level Albuquerque Center
Tue 01:36:13 PM 34.8872 -108.1006 95° East 383 441 25,000  Level Albuquerque Center
Tue 01:37:13 PM 34.8775 -107.9739 95° East 383 441 25,000  Level Albuquerque Center
Tue 01:38:13 PM 34.8678 -107.8447 96° East 388 447 25,000  Level Albuquerque Center
Tue 01:39:13 PM 34.8578 -107.7308 96° East 383 441 25,000  Level Albuquerque Center
Tue 01:40:13 PM 34.8456 -107.5889 97° East 383 441 25,000  Level Albuquerque Center
Tue 01:41:13 PM 34.8333 -107.4600 96° East 383 441 25,000  Level Albuquerque Center
Tue 01:42:13 PM 34.8228 -107.3333 96° East 388 447 25,000  Level Albuquerque Center
Tue 01:43:13 PM 34.8122 -107.2169 95° East 383 441 25,000  Level Albuquerque Center
Tue 01:44:13 PM 34.8017 -107.0753 96° East 388 447 25,000  Level Albuquerque Center
Tue 01:45:13 PM 34.7908 -106.9489 97° East 388 447 25,000  Level Albuquerque Center
Tue 01:46:13 PM 34.7778 -106.8175 95° East 388 447 25,000  Level Albuquerque Center
Tue 01:47:13 PM 34.7689 -106.6861 97° East 388 447 25,000  Level Albuquerque Center
Tue 01:48:13 PM 34.7556 -106.5597 95° East 388 447 25,000  Level Albuquerque Center
Tue 01:49:13 PM 34.7461 -106.4336 98° East 388 447 25,000  Level Albuquerque Center
Tue 01:50:13 PM 34.7306 -106.3047 97° East 388 447 25,000  Level Albuquerque Center
Tue 01:51:13 PM 34.7169 -106.1761 96° East 383 441 25,000  Level Albuquerque Center
Tue 01:52:13 PM 34.7050 -106.0450 97° East 390 449 25,000  Level Albuquerque Center
Tue 01:53:13 PM 34.6933 -105.9214 95° East 385 443 25,000  Level Albuquerque Center
Tue 01:54:13 PM 34.6833 -105.7953 98° East 385 443 25,000  Level Albuquerque Center
Tue 01:55:13 PM 34.6689 -105.6642 97° East 385 443 25,000  Level Albuquerque Center
Tue 01:56:13 PM 34.6569 -105.5508 97° East 390 449 25,000  Level Albuquerque Center
Tue 01:57:13 PM 34.6444 -105.4197 98° East 385 443 25,000  Level Albuquerque Center
Tue 01:58:13 PM 34.6297 -105.2914 97° East 390 449 25,000  Level Albuquerque Center
Tue 01:59:13 PM 34.6169 -105.1606 98° East 384 442 25,000  Level Albuquerque Center
Tue 02:00:13 PM 34.6019 -105.0322 97° East 384 442 25,000  Level Albuquerque Center
Tue 02:01:13 PM 34.5889 -104.9014 98° East 384 442 25,000  Level Albuquerque Center
Tue 02:02:13 PM 34.5739 -104.7731 97° East 384 442 25,000  Level Albuquerque Center
Tue 02:03:13 PM 34.5606 -104.6425 97° East 390 449 25,000  Level Albuquerque Center
Tue 02:04:13 PM 34.5469 -104.5117 98° East 390 449 25,000  Level Albuquerque Center
Tue 02:05:13 PM 34.5311 -104.3711 98° East 390 449 25,000  Level Albuquerque Center
Tue 02:06:13 PM 34.5150 -104.2381 97° East 390 449 25,000  Level Albuquerque Center
Tue 02:07:13 PM 34.5011 -104.1078 98° East 390 449 25,000  Level Albuquerque Center
Tue 02:08:13 PM 34.4872 -103.9822 97° East 385 443 25,000  Level Albuquerque Center
Tue 02:09:13 PM 34.4731 -103.8492 99° East 390 449 25,000  Level Albuquerque Center
Tue 02:10:13 PM 34.4567 -103.7214 98° East 384 442 25,000  Level Albuquerque Center
Tue 02:11:13 PM 34.4422 -103.5911 98° East 391 450 25,000  Level Albuquerque Center
Tue 02:12:13 PM 34.4278 -103.4608 98° East 380 437 25,000  Level Albuquerque Center
Tue 02:13:13 PM 34.4131 -103.3333 101° East 385 443 25,000  Level Albuquerque Center
Tue 02:13:43 PM 34.4033 -103.2728 99° East 401 461 25,000  Level Fort Worth Center
Tue 02:14:43 PM 34.3861 -103.1458 99° East 407 468 25,000  Level Fort Worth Center
Tue 02:15:43 PM 34.3692 -103.0114 96° East 400 460 25,000  Level Fort Worth Center
Tue 02:16:43 PM 34.3581 -102.8897 99° East 386 444 25,000  Level Fort Worth Center
Tue 02:17:43 PM 34.3406 -102.7606 98° East 386 444 25,000  Level Fort Worth Center
Tue 02:18:43 PM 34.3253 -102.6311 98° East 386 444 25,000  Level Fort Worth Center
Tue 02:19:43 PM 34.3097 -102.5022 99° East 386 444 25,000  Level Fort Worth Center
Tue 02:20:43 PM 34.2939 -102.3756 100° East 386 444 25,000  Level Fort Worth Center
Tue 02:21:43 PM 34.2758 -102.2489 100° East 386 444 25,000  Level Fort Worth Center
Tue 02:22:43 PM 34.2578 -102.1222 99° East 386 444 25,000  Level Fort Worth Center
Tue 02:23:43 PM 34.2417 -101.9933 99° East 386 444 25,000  Level Fort Worth Center
Tue 02:24:43 PM 34.2256 -101.8667 99° East 381 438 25,000  Level Fort Worth Center
Tue 02:25:43 PM 34.2092 -101.7378 99° East 381 438 25,000  Level Fort Worth Center
Tue 02:26:43 PM 34.1925 -101.6142 99° East 381 438 25,000  Level Fort Worth Center
Tue 02:27:43 PM 34.1758 -101.4878 100° East 376 433 25,000  Level Fort Worth Center
Tue 02:28:43 PM 34.1569 -101.3639 98° East 376 433 25,000  Level Fort Worth Center
Tue 02:29:43 PM 34.1419 -101.2378 100° East 376 433 25,000  Level Fort Worth Center
Tue 02:30:43 PM 34.1228 -101.1089 99° East 379 436 25,000  Level Fort Worth Center
Tue 02:31:43 PM 34.1056 -100.9828 99° East 379 436 25,000  Level Fort Worth Center
Tue 02:32:43 PM 34.0883 -100.8567 100° East 374 430 25,000  Level Fort Worth Center
Tue 02:33:43 PM 34.0689 -100.7281 99° East 374 430 25,000  Level Fort Worth Center
Tue 02:34:43 PM 34.0514 -100.5994 101° East 374 430 25,000  Level Fort Worth Center
Tue 02:35:43 PM 34.0333 -100.4886 99° East 376 433 25,000  Level Fort Worth Center
Tue 02:36:43 PM 34.0156 -100.3603 100° East 376 433 25,000  Level Fort Worth Center
Tue 02:37:43 PM 33.9975 -100.2319 100° East 381 438 25,000  Level Fort Worth Center
Tue 02:38:43 PM 33.9794 -100.1061 100° East 381 438 25,000  Level Fort Worth Center
Tue 02:39:43 PM 33.9611 -99.9853 100° East 376 433 25,000  Level Fort Worth Center
Tue 02:40:43 PM 33.9428 -99.8594 102° East 376 433 25,000  Level Fort Worth Center
Tue 02:41:43 PM 33.9222 -99.7389 101° East 376 433 25,000  Level Fort Worth Center
Tue 02:42:43 PM 33.9033 -99.6183 100° East 371 427 25,000  Level Fort Worth Center
Tue 02:43:43 PM 33.8847 -99.4925 100° East 371 427 25,000  Level Fort Worth Center
Tue 02:44:43 PM 33.8678 -99.3747 101° East 371 427 25,000  Level Fort Worth Center
Tue 02:45:43 PM 33.8489 -99.2567 101° East 371 427 25,000  Level Fort Worth Center
Tue 02:47:43 PM 33.8083 -99.0158 101° East 366 421 25,000  Level Fort Worth Center
Tue 02:48:43 PM 33.7869 -98.8856 98° East 361 415 25,000  Level Fort Worth Center
Tue 02:49:43 PM 33.7717 -98.7628 102° East 361 415 25,000  Level Fort Worth Center
Tue 02:50:43 PM 33.7500 -98.6425 100° East 361 415 25,000  Level Fort Worth Center
Tue 02:51:43 PM 33.7322 -98.5250 101° East 361 415 25,000  Level Fort Worth Center
Tue 02:52:43 PM 33.7122 -98.4047 100° East 366 421 25,000  Level Fort Worth Center
Tue 02:53:43 PM 33.6944 -98.2797 103° East 366 421 25,000  Level Fort Worth Center
Tue 02:54:43 PM 33.6722 -98.1597 101° East 371 427 25,000  Level Fort Worth Center
Tue 02:55:43 PM 33.6522 -98.0397 100° East 371 427 25,000  Level Fort Worth Center
Tue 02:56:43 PM 33.6358 -97.9250 103° East 378 435 25,000  Level Fort Worth Center
Tue 02:57:43 PM 33.6133 -97.8050 100° East 372 428 25,000  Level Fort Worth Center
Tue 02:58:43 PM 33.5950 -97.6853 102° East 372 428 25,000  Level Fort Worth Center
Tue 02:59:43 PM 33.5742 -97.5631 101° East 372 428 25,000  Level Fort Worth Center
Tue 03:00:43 PM 33.5536 -97.4408 101° East 373 429 25,000  Level Fort Worth Center
Tue 03:01:43 PM 33.5325 -97.3064 103° East 373 429 25,000  Level Fort Worth Center
Tue 03:02:43 PM 33.5094 -97.1842 102° East 373 429 25,000  Level Fort Worth Center
Tue 03:03:43 PM 33.4883 -97.0647 101° East 373 429 25,000  Level Fort Worth Center
Tue 03:04:43 PM 33.4692 -96.9428 102° East 373 429 25,000  Level Fort Worth Center
Tue 03:05:43 PM 33.4478 -96.8233 102° East 373 429 25,000  Level Fort Worth Center
Tue 03:06:43 PM 33.4264 -96.7042 102° East 373 429 25,000  Level Fort Worth Center
Tue 03:07:43 PM 33.4047 -96.5872 102° East 367 422 25,000  Level Fort Worth Center
Tue 03:08:43 PM 33.3853 -96.4781 101° East 367 422 25,000  Level Fort Worth Center
Tue 03:09:43 PM 33.3656 -96.3564 104° East 367 422 25,000  Level Fort Worth Center
Tue 03:10:43 PM 33.3414 -96.2372 102° East 372 428 25,000  Level Fort Worth Center
Tue 03:11:43 PM 33.3194 -96.1158 107° East 372 428 25,000  Level Fort Worth Center
Tue 03:12:43 PM 33.2889 -95.9969 106° East 372 428 25,000  Level Fort Worth Center
Tue 03:13:43 PM 33.2603 -95.8781 107° East 372 428 25,000  Level Fort Worth Center
Tue 03:14:43 PM 33.2275 -95.7497 106° East 377 434 25,000  Level Fort Worth Center
Tue 03:15:43 PM 33.1986 -95.6333 111° Southeast 377 434 25,000  Level Fort Worth Center
Tue 03:16:43 PM 33.1614 -95.5150 106° East 383 441 25,000  Level Fort Worth Center
Tue 03:17:43 PM 33.1325 -95.3967 109° East 378 435 25,000  Level Fort Worth Center
Tue 03:18:43 PM 33.0992 -95.2783 105° East 378 435 25,000  Level Fort Worth Center
Tue 03:19:43 PM 33.0722 -95.1625 107° East 372 428 25,000  Level Fort Worth Center
Tue 03:20:43 PM 33.0406 -95.0419 108° East 372 428 25,000  Level Fort Worth Center
Tue 03:21:43 PM 33.0114 -94.9336 108° East 378 435 25,000  Level Fort Worth Center
Tue 03:22:43 PM 32.9800 -94.8181 107° East 378 435 25,000  Level Fort Worth Center
Tue 03:23:43 PM 32.9503 -94.7003 106° East 373 429 25,000  Level Fort Worth Center
Tue 03:24:43 PM 32.9206 -94.5797 108° East 373 429 25,000  Level Fort Worth Center
Tue 03:25:43 PM 32.8886 -94.4644 108° East 373 429 25,000  Level Fort Worth Center
Tue 03:26:43 PM 32.8567 -94.3469 94° East 373 429 25,000  Level Fort Worth Center
Tue 03:27:43 PM 32.8494 -94.2261 90° East 368 423 25,000  Level Fort Worth Center
Tue 03:28:43 PM 32.8503 -94.1022 88° East 368 423 25,000  Level Fort Worth Center
Tue 03:29:43 PM 32.8533 -93.9811 90° East 363 418 25,000  Level Fort Worth Center
Tue 03:30:43 PM 32.8542 -93.8575 88° East 363 418 25,000  Level Fort Worth Center
Tue 03:31:43 PM 32.8569 -93.7361 90° East 363 418 25,000  Level Fort Worth Center
Tue 03:32:43 PM 32.8575 -93.6125 90° East 363 418 25,000  Level Fort Worth Center
Tue 03:33:43 PM 32.8578 -93.4864 89° East 363 418 25,000  Level Fort Worth Center
Tue 03:34:43 PM 32.8600 -93.3625 90° East 363 418 25,000  Level Fort Worth Center
Tue 03:35:43 PM 32.8603 -93.2389 88° East 368 423 25,000  Level Fort Worth Center
Tue 03:36:43 PM 32.8642 -93.1125 90° East 368 423 25,000  Level Fort Worth Center
Tue 03:37:43 PM 32.8642 -92.9892 91° East 368 423 25,000  Level Fort Worth Center
Tue 03:38:43 PM 32.8617 -92.8631 106° East 368 423 25,000  Level Fort Worth Center
Tue 03:39:43 PM 32.8322 -92.7433 105° East 368 423 25,000  Level Fort Worth Center
Tue 03:40:43 PM 32.8047 -92.6214 111° Southeast 373 429 25,000  Level Fort Worth Center
Tue 03:41:43 PM 32.7667 -92.5022 113° Southeast 373 429 25,000  Level Fort Worth Center
Tue 03:42:43 PM 32.7244 -92.3861 109° East 379 436 25,000  Level Fort Worth Center
Tue 03:43:43 PM 32.6906 -92.2669 111° Southeast 379 436 25,000  Level Fort Worth Center
Tue 03:46:10 PM 32.5967 -91.9797 110° East 375 432 25,000  Level Memphis Center
Tue 03:47:10 PM 32.5606 -91.8633 113° Southeast 381 438 25,000  Level Memphis Center
Tue 03:48:10 PM 32.5161 -91.7394 109° East 386 444 25,000  Level Memphis Center
Tue 03:49:10 PM 32.4819 -91.6231 113° Southeast 386 444 25,000  Level Memphis Center
Tue 03:50:10 PM 32.4392 -91.5044 111° Southeast 380 437 25,000  Level Memphis Center
Tue 03:51:10 PM 32.4006 -91.3833 111° Southeast 380 437 25,000  Level Memphis Center
Tue 03:52:10 PM 32.3617 -91.2647 112° Southeast 380 437 25,000  Level Memphis Center
Tue 03:53:10 PM 32.3208 -91.1464 111° Southeast 380 437 25,000  Level Memphis Center
Tue 03:54:10 PM 32.2819 -91.0281 112° Southeast 380 437 25,000  Level Memphis Center
Tue 03:55:10 PM 32.2406 -90.9100 111° Southeast 385 443 25,000  Level Memphis Center
Tue 03:56:10 PM 32.2014 -90.7894 112° Southeast 385 443 25,000  Level Memphis Center
Tue 03:57:10 PM 32.1600 -90.6664 111° Southeast 391 450 25,000  Level Memphis Center
Tue 03:58:10 PM 32.1206 -90.5461 113° Southeast 391 450 25,000  Level Memphis Center
Tue 03:59:10 PM 32.0789 -90.4283 112° Southeast 391 450 25,000  Level Memphis Center
Tue 04:00:10 PM 32.0372 -90.3058 111° Southeast 391 450 25,000  Level Memphis Center
Tue 04:01:10 PM 31.9933 -90.1736 112° Southeast 398 458 25,000  Level Memphis Center
Tue 04:02:10 PM 31.9514 -90.0539 112° Southeast 398 458 25,000  Level Memphis Center
Tue 04:03:10 PM 31.9092 -89.9339 113° Southeast 392 451 25,000  Level Memphis Center
Tue 04:04:10 PM 31.8669 -89.8144 112° Southeast 392 451 25,000  Level Memphis Center
Tue 04:05:10 PM 31.8267 -89.6947 112° Southeast 392 451 25,000  Level Memphis Center
Tue 04:06:10 PM 31.7842 -89.5728 112° Southeast 392 451 25,000  Level Memphis Center
Tue 04:07:10 PM 31.7439 -89.4561 116° Southeast 392 451 25,000  Level Memphis Center
Tue 04:07:49 PM 31.7125 -89.3800 113° Southeast 403 464 25,000  Level Houston Center
Tue 04:08:49 PM 31.6753 -89.2761 113° Southeast 384 442 25,000  Level Houston Center
Tue 04:09:48 PM 31.6314 -89.1553 111° Southeast 384 442 25,000  Level Houston Center
Tue 04:10:49 PM 31.5917 -89.0369 113° Southeast 384 442 25,000  Level Houston Center
Tue 04:11:49 PM 31.5497 -88.9211 113° Southeast 389 448 25,000  Level Houston Center
Tue 04:12:49 PM 31.5075 -88.8031 113° Southeast 389 448 25,000  Level Houston Center
Tue 04:13:48 PM 31.4656 -88.6875 113° Southeast 389 448 25,000  Level Houston Center
Tue 04:14:49 PM 31.4231 -88.5694 112° Southeast 389 448 25,000  Level Houston Center
Tue 04:15:49 PM 31.3828 -88.4517 112° Southeast 389 448 25,000  Level Houston Center
Tue 04:16:49 PM 31.3425 -88.3364 113° Southeast 389 448 25,000  Level Houston Center
Tue 04:17:49 PM 31.3000 -88.2186 113° Southeast 389 448 25,000  Level Houston Center
Tue 04:18:49 PM 31.2528 -88.0892 114° Southeast 389 448 25,000  Level Houston Center
Tue 04:19:49 PM 31.2125 -87.9839 113° Southeast 389 448 25,000  Level Houston Center
Tue 04:22:04 PM 31.1183 -87.7236 103° East 393 452 25,000  Level Jacksonville Center
Tue 04:23:04 PM 31.0939 -87.6011 98° East 387 445 25,000  Level Jacksonville Center
Tue 04:24:04 PM 31.0794 -87.4792 97° East 381 438 25,000  Level Jacksonville Center
Tue 04:25:04 PM 31.0653 -87.3525 98° East 381 438 25,000  Level Jacksonville Center
Tue 04:26:04 PM 31.0506 -87.2306 97° East 381 438 25,000  Level Jacksonville Center
Tue 04:27:04 PM 31.0381 -87.1086 99° East 381 438 25,000  Level Jacksonville Center
Tue 04:28:04 PM 31.0211 -86.9844 97° East 381 438 25,000  Level Jacksonville Center
Tue 04:29:04 PM 31.0083 -86.8603 98° East 386 444 25,000  Level Jacksonville Center
Tue 04:30:04 PM 30.9936 -86.7361 99° East 386 444 25,000  Level Jacksonville Center
Tue 04:31:04 PM 30.9744 -86.5994 98° East 391 450 25,000  Level Jacksonville Center
Tue 04:32:04 PM 30.9594 -86.4756 99° East 386 444 25,000  Level Jacksonville Center
Tue 04:33:04 PM 30.9419 -86.3511 98° East 386 444 25,000  Level Jacksonville Center
Tue 04:34:04 PM 30.9264 -86.2297 98° East 386 444 25,000  Level Jacksonville Center
Tue 04:35:04 PM 30.9108 -86.1031 97° East 391 450 25,000  Level Jacksonville Center
Tue 04:36:04 PM 30.8972 -85.9817 98° East 391 450 25,000  Level Jacksonville Center
Tue 04:37:04 PM 30.8814 -85.8578 98° East 391 450 25,000  Level Jacksonville Center
Tue 04:38:04 PM 30.8653 -85.7314 100° East 391 450 25,000  Level Jacksonville Center
Tue 04:39:04 PM 30.8472 -85.6075 98° East 391 450 25,000  Level Jacksonville Center
Tue 04:40:04 PM 30.8311 -85.4811 98° East 391 450 25,000  Level Jacksonville Center
Tue 04:41:04 PM 30.8169 -85.3575 99° East 391 450 25,000  Level Jacksonville Center
Tue 04:42:04 PM 30.8003 -85.2314 100° East 391 450 25,000  Level Jacksonville Center
Tue 04:43:04 PM 30.7817 -85.1075 117° Southeast 391 450 25,000  Level Jacksonville Center
Tue 04:44:04 PM 30.7375 -85.0075 126° Southeast 391 450 25,000  Level Jacksonville Center
Tue 04:45:04 PM 30.6725 -84.9019 124° Southeast 386 444 25,000  Level Jacksonville Center
Tue 04:46:04 PM 30.6094 -84.7922 124° Southeast 398 458 25,000  Level Jacksonville Center
Tue 04:47:04 PM 30.5461 -84.6822 124° Southeast 403 464 25,000  Level Jacksonville Center
Tue 04:48:04 PM 30.4831 -84.5750 124° Southeast 403 464 25,000  Level Jacksonville Center
Tue 04:49:04 PM 30.4197 -84.4681 123° Southeast 403 464 25,000  Level Jacksonville Center
Tue 04:50:04 PM 30.3561 -84.3561 124° Southeast 403 464 25,000  Level Jacksonville Center
Tue 04:51:04 PM 30.2928 -84.2494 124° Southeast 403 464 25,000  Level Jacksonville Center
Tue 04:52:04 PM 30.2311 -84.1428 123° Southeast 403 464 25,000  Level Jacksonville Center
Tue 04:53:04 PM 30.1694 -84.0339 125° Southeast 403 464 25,000  Level Jacksonville Center
Tue 04:54:04 PM 30.1058 -83.9275 123° Southeast 403 464 25,000  Level Jacksonville Center
Tue 04:55:04 PM 30.0439 -83.8189 124° Southeast 403 464 25,000  Level Jacksonville Center
Tue 04:56:04 PM 29.9819 -83.7128 125° Southeast 403 464 25,000  Level Jacksonville Center
Tue 04:57:04 PM 29.9181 -83.6092 124° Southeast 403 464 25,000  Level Jacksonville Center
Tue 04:58:04 PM 29.8558 -83.5033 124° Southeast 403 464 25,000  Level Jacksonville Center
Tue 04:59:04 PM 29.7936 -83.3953 125° Southeast 403 464 25,000  Level Jacksonville Center
Tue 05:00:04 PM 29.7314 -83.2919 125° Southeast 403 464 25,000  Level Jacksonville Center
Tue 05:01:04 PM 29.6586 -83.1722 126° Southeast 408 470 25,000  Level Jacksonville Center
Tue 05:02:04 PM 29.5961 -83.0717 149° Southeast 403 464 25,000  Level Jacksonville Center
Tue 05:03:04 PM 29.5064 -83.0094 153° Southeast 373 429 25,000  Level Jacksonville Center
Tue 05:04:04 PM 29.4106 -82.9544 155° Southeast 378 435 25,000  Level Jacksonville Center
Tue 05:05:04 PM 29.3144 -82.9022 149° Southeast 378 435 25,000  Level Jacksonville Center
Tue 05:06:04 PM 29.2247 -82.8403 121° Southeast 378 435 25,000  Level Jacksonville Center
Tue 05:07:04 PM 29.1683 -82.7333 124° Southeast 368 423 25,000  Level Jacksonville Center
Tue 05:08:04 PM 29.1075 -82.6289 122° Southeast 381 438 25,000 -250 Level Jacksonville Center
Tue 05:09:04 PM 29.0511 -82.5244 124° Southeast 388 447 24,500 -700 Descending Jacksonville Center
Tue 05:10:04 PM 28.9900 -82.4225 123° Southeast 388 447 23,600 -1,000 Descending Jacksonville Center
Tue 05:11:04 PM 28.9397 -82.3325 123° Southeast 388 447 22,500 -1,200 Descending Jacksonville Center
Tue 05:12:04 PM 28.8828 -82.2333 123° Southeast 383 441 21,200 -1,250 Descending Jacksonville Center
Tue 05:13:04 PM 28.8300 -82.1389 124° Southeast 371 427 20,000 -1,150 Descending Jacksonville Center
Tue 05:14:04 PM 28.7775 -82.0494 123° Southeast 358 412 18,900 -1,400 Descending Jacksonville Center
Tue 05:15:04 PM 28.7267 -81.9597 124° Southeast 345 397 17,200 -1,850 Descending Jacksonville Center
Tue 05:16:04 PM 28.6717 -81.8656 124° Southeast 338 389 15,200 -1,860 Descending Jacksonville Center
Tue 05:16:44 PM 28.6333 -81.8000 114° Southeast 317 365 14,100 -1,636 Descending Orlando TRACON
Tue 05:17:43 PM 28.6000 -81.7167 130° Southeast 306 352 12,500 -1,316 Descending Orlando TRACON
Tue 05:18:38 PM 28.5500 -81.6500 114° Southeast 295 339 11,600 -730 Descending Orlando TRACON
Tue 05:19:38 PM 28.5167 -81.5667 106° East 290 334 11,100 -263 Descending Orlando TRACON
Tue 05:20:32 PM 28.5000 -81.5000 101° East 284 327 11,100  Level Orlando TRACON
Tue 05:21:38 PM 28.4833 -81.4000 79° East 299 344 11,100  Level Orlando TRACON
Tue 05:22:39 PM 28.5000 -81.3000 90° East 293 337 11,100  Level Orlando TRACON
Tue 05:23:39 PM 28.5000 -81.2167 79° East 282 325 11,100  Level Orlando TRACON
Tue 05:24:45 PM 28.5167 -81.1167 74° East 280 322 11,100 -600 Level Orlando TRACON
Tue 05:25:39 PM 28.5333 -81.0500 77° East 281 323 9,900 -1,474 Descending Orlando TRACON
Tue 05:26:39 PM 28.5500 -80.9667 60° Northeast 272 313 8,300 -1,686 Descending Orlando TRACON
Tue 05:27:40 PM 28.5833 -80.9000 30° Northeast 251 289 6,500 -1,722 Descending Orlando TRACON
Tue 05:28:34 PM 28.6333 -80.8667 12° North 224 258 5,000 -1,632 Descending Orlando TRACON
Tue 05:29:34 PM 28.7000 -80.8500 69° East 202 232 3,400 -1,450 Descending Orlando TRACON
Tue 05:30:34 PM 28.7167 -80.8000 111° Southeast 162 186 2,100 -895 Descending Orlando TRACON
Tue 05:31:28 PM 28.7000 -80.7500 156° South 143 165 1,700 -595 Descending Orlando TRACON
Tue 05:32:35 PM 28.6667 -80.7333 156° South 144 166 900 -614 Descending Orlando TRACON
Tue 05:33:35 PM 28.6333 -80.7167 156° South 139 160 400 -500 Descending Orlando TRACON

Login

Don't have an account? Register now (free) for customized features, flight alerts, and more!